createdAt,value
2018-09-10T05:29:33.297Z,3.13
2018-09-10T05:32:05.628Z,2.83
2018-09-10T05:34:38.024Z,3.37
2018-09-10T05:37:10.392Z,3.30
2018-09-10T05:39:42.733Z,2.90
2018-09-10T05:42:15.075Z,3.23
2018-09-10T05:44:47.388Z,3.17
2018-09-10T05:47:19.900Z,3.10
2018-09-10T05:49:52.534Z,3.53
2018-09-10T05:52:25.282Z,3.30
2018-09-10T05:54:57.613Z,3.17
2018-09-10T05:57:29.990Z,3.63
2018-09-10T06:00:02.312Z,3.30
2018-09-10T06:02:34.664Z,3.20
2018-09-10T06:05:07.073Z,3.53
2018-09-10T06:07:39.439Z,3.70
2018-09-10T06:10:11.769Z,3.87
2018-09-10T06:12:44.113Z,3.97
2018-09-10T06:15:16.457Z,3.70
2018-09-10T06:17:48.804Z,4.53
2018-09-10T06:20:21.387Z,4.63
2018-09-10T06:22:53.717Z,3.80
2018-09-10T06:25:26.100Z,4.63
2018-09-10T06:27:58.448Z,5.43
2018-09-10T06:30:31.105Z,5.20
2018-09-10T06:33:03.511Z,5.20
2018-09-10T06:35:35.851Z,4.70
2018-09-10T06:38:08.201Z,4.60
2018-09-10T06:40:40.535Z,4.43
2018-09-10T06:43:12.888Z,4.70
2018-09-10T06:45:45.280Z,4.23
2018-09-10T06:48:17.632Z,4.20
2018-09-10T06:50:50.013Z,4.77
2018-09-10T06:53:22.395Z,4.40
2018-09-10T06:55:54.721Z,4.33
2018-09-10T06:58:27.084Z,4.10
2018-09-10T07:00:59.420Z,4.33
2018-09-10T07:03:31.812Z,4.57
2018-09-10T07:06:10.916Z,4.57
2018-09-10T07:08:43.276Z,4.70
2018-09-10T07:11:15.612Z,4.33
2018-09-10T07:13:47.980Z,5.20
2018-09-10T07:16:20.351Z,4.53
2018-09-10T07:18:52.760Z,4.10
2018-09-10T07:21:25.029Z,3.80
2018-09-10T07:23:57.398Z,3.90
2018-09-10T07:26:29.763Z,5.67
2018-09-10T07:29:02.147Z,4.60
2018-09-10T07:31:34.480Z,4.40
2018-09-10T07:34:06.880Z,3.20
2018-09-10T07:36:39.203Z,4.30
2018-09-10T07:39:11.551Z,5.60
2018-09-10T07:41:43.873Z,5.77
2018-09-10T07:44:16.226Z,6.00
2018-09-10T07:46:48.520Z,4.80
2018-09-10T07:49:20.849Z,4.53
2018-09-10T07:51:53.221Z,4.67
2018-09-10T07:54:25.606Z,4.37
2018-09-10T07:56:57.936Z,4.50
2018-09-10T07:59:30.253Z,4.27
2018-09-10T08:02:02.588Z,5.00
2018-09-10T08:04:34.900Z,4.97
2018-09-10T08:07:07.229Z,3.97
2018-09-10T08:09:39.633Z,4.53
2018-09-10T08:12:11.860Z,4.13
2018-09-10T08:14:44.185Z,4.40
2018-09-10T08:17:16.508Z,5.60
2018-09-10T08:19:48.862Z,5.73
2018-09-10T08:22:21.208Z,6.20
2018-09-10T08:24:53.568Z,5.07
2018-09-10T08:27:25.904Z,5.30
2018-09-10T08:29:58.317Z,5.43
2018-09-10T08:32:30.685Z,6.47
2018-09-10T08:35:03.114Z,6.30
2018-09-10T08:37:35.477Z,6.23
2018-09-10T08:40:07.921Z,5.43
2018-09-10T08:42:40.272Z,7.77
2018-09-10T08:45:12.576Z,6.17
2018-09-10T08:47:44.951Z,5.20
2018-09-10T08:50:17.261Z,4.13
2018-09-10T08:52:49.660Z,3.65
2018-09-10T08:55:22.057Z,4.93
2018-09-10T08:57:54.335Z,3.97
2018-09-10T09:00:26.679Z,3.80
2018-09-10T09:02:59.023Z,5.17
2018-09-10T09:05:31.371Z,4.10
2018-09-10T09:08:03.775Z,4.13
2018-09-10T09:10:36.044Z,5.00
2018-09-10T09:13:08.468Z,3.60
2018-09-10T09:15:40.813Z,3.80
2018-09-10T09:18:13.166Z,4.20
2018-09-10T09:20:45.962Z,3.97
2018-09-10T09:23:18.395Z,3.98
2018-09-10T09:25:50.665Z,4.35
2018-09-10T09:28:23.008Z,5.00
2018-09-10T09:30:55.343Z,4.70
2018-09-10T09:33:27.704Z,4.40
2018-09-10T09:36:00.238Z,4.55
2018-09-10T09:38:32.712Z,6.47
2018-09-10T09:41:05.048Z,4.90
2018-09-10T09:43:37.439Z,4.03
2018-09-10T09:46:09.775Z,4.30
2018-09-10T09:48:42.104Z,4.00
2018-09-10T09:51:14.544Z,3.20
2018-09-10T09:53:46.817Z,3.60
2018-09-10T09:56:19.152Z,3.62
2018-09-10T09:58:51.512Z,3.83
2018-09-10T10:01:23.910Z,3.63
2018-09-10T10:03:56.244Z,3.83
2018-09-10T10:06:28.619Z,5.03
2018-09-10T10:09:01.012Z,4.78
2018-09-10T10:11:33.474Z,4.28
2018-09-10T10:14:06.616Z,4.33
2018-09-10T10:19:17.656Z,4.65
2018-09-10T10:21:50.049Z,10.93
2018-09-10T10:24:22.399Z,5.95
2018-09-10T10:26:54.755Z,5.83
2018-09-10T10:29:27.104Z,5.78
2018-09-10T10:31:59.536Z,4.87
2018-09-10T10:34:31.884Z,4.50
2018-09-10T10:37:04.252Z,4.78
2018-09-10T10:39:36.597Z,4.40
2018-09-10T10:42:08.979Z,5.28
2018-09-10T10:44:41.312Z,4.65
2018-09-10T10:47:13.655Z,6.37
2018-09-10T10:49:46.012Z,5.65
2018-09-10T10:52:18.348Z,5.53
2018-09-10T10:54:50.689Z,5.90
2018-09-10T10:57:23.024Z,5.60
2018-09-10T10:59:55.376Z,5.03
2018-09-10T11:02:27.699Z,5.45
2018-09-10T11:05:00.089Z,4.87
2018-09-10T11:07:32.692Z,4.80
2018-09-10T11:10:05.917Z,5.03
2018-09-10T11:12:38.232Z,4.40
2018-09-10T11:15:10.557Z,5.15
2018-09-10T11:17:42.966Z,6.20
2018-09-10T11:20:15.341Z,4.35
2018-09-10T11:22:47.661Z,4.15
2018-09-10T11:25:19.980Z,4.30
2018-09-10T11:27:52.342Z,4.70
2018-09-10T11:30:24.628Z,4.42
2018-09-10T11:32:56.933Z,4.45
2018-09-10T11:35:29.253Z,4.40
2018-09-10T11:38:01.565Z,5.05
2018-09-10T11:40:33.888Z,4.25
2018-09-10T11:43:06.262Z,4.00
2018-09-10T11:45:38.600Z,3.85
2018-09-10T11:48:10.928Z,4.10
2018-09-10T11:50:43.255Z,3.50
2018-09-10T11:53:15.564Z,3.80
2018-09-10T11:55:47.915Z,3.47
2018-09-10T11:58:20.207Z,3.92
2018-09-10T12:00:52.568Z,3.80
2018-09-10T12:03:24.917Z,3.72
2018-09-10T12:05:57.275Z,3.52
2018-09-10T12:08:30.393Z,3.05
2018-09-10T12:11:02.743Z,3.65
2018-09-10T12:13:35.144Z,3.80
2018-09-10T12:16:07.427Z,3.50
2018-09-10T12:18:39.752Z,2.90
2018-09-10T12:21:12.095Z,3.33
2018-09-10T12:23:44.428Z,2.98
2018-09-10T12:26:16.780Z,3.20
2018-09-10T12:28:49.108Z,3.15
2018-09-10T12:31:21.463Z,3.30
2018-09-10T12:33:53.800Z,3.20
2018-09-10T12:36:26.152Z,3.17
2018-09-10T12:38:58.550Z,2.98
2018-09-10T12:41:30.878Z,3.08
2018-09-10T12:44:03.208Z,3.10
2018-09-10T12:46:35.591Z,3.42
2018-09-10T12:49:07.887Z,3.02
2018-09-10T12:51:40.228Z,3.45
2018-09-10T12:54:12.544Z,2.95
2018-09-10T12:56:44.884Z,3.60
2018-09-10T12:59:17.216Z,3.52
2018-09-10T13:01:49.577Z,2.90
2018-09-10T13:04:22.002Z,3.27
2018-09-10T13:06:54.259Z,3.65
2018-09-10T13:09:26.597Z,3.50
2018-09-10T13:11:58.971Z,3.50
2018-09-10T13:14:31.260Z,3.25
2018-09-10T13:17:03.862Z,2.90
2018-09-10T13:19:36.176Z,2.98
2018-09-10T13:22:08.511Z,3.62
2018-09-10T13:24:40.824Z,3.37
2018-09-10T13:27:13.144Z,3.27
2018-09-10T13:29:45.477Z,2.98
2018-09-10T13:32:17.776Z,2.80
2018-09-10T13:34:50.077Z,3.22
2018-09-10T13:37:22.424Z,2.80
2018-09-10T13:39:54.740Z,3.22
2018-09-10T13:42:27.068Z,3.35
2018-09-10T13:44:59.419Z,3.30
2018-09-10T13:47:31.773Z,4.10
2018-09-10T13:50:04.180Z,3.77
2018-09-10T13:52:36.577Z,3.85
2018-09-10T13:55:08.920Z,3.60
2018-09-10T13:57:41.364Z,4.15
2018-09-10T14:00:13.684Z,3.60
2018-09-10T14:02:46.048Z,3.00
2018-09-10T14:05:18.384Z,2.90
2018-09-10T14:07:50.743Z,3.30
2018-09-10T14:10:23.085Z,2.90
2018-09-10T14:12:55.718Z,2.65
2018-09-10T14:15:28.057Z,3.25
2018-09-10T14:18:00.392Z,3.20
2018-09-10T14:20:32.742Z,2.92
2018-09-10T14:23:05.068Z,2.98
2018-09-10T14:25:37.397Z,3.47
2018-09-10T14:28:09.736Z,3.02
2018-09-10T14:30:42.077Z,2.92
2018-09-10T14:33:14.411Z,3.27
2018-09-10T14:35:46.751Z,2.50
2018-09-10T14:38:19.128Z,3.33
2018-09-10T14:40:51.456Z,2.87
2018-09-10T14:43:23.783Z,2.80
2018-09-10T14:45:56.113Z,2.70
2018-09-10T14:48:28.445Z,3.13
2018-09-10T14:51:00.776Z,2.67
2018-09-10T14:53:33.225Z,3.37
2018-09-10T14:56:05.688Z,3.00
2018-09-10T14:58:38.036Z,2.93
2018-09-10T15:01:10.372Z,2.90
2018-09-10T15:03:42.780Z,3.30
2018-09-10T15:06:15.185Z,2.87
2018-09-10T15:08:47.554Z,3.27
2018-09-10T15:11:19.880Z,3.12
2018-09-10T15:13:52.245Z,2.90
2018-09-10T15:16:24.584Z,3.00
2018-09-10T15:18:57.066Z,2.87
2018-09-10T15:21:29.262Z,2.90
2018-09-10T15:24:01.622Z,3.13
2018-09-10T15:26:33.936Z,2.40
2018-09-10T15:29:06.296Z,3.33
2018-09-10T15:31:38.693Z,2.70
2018-09-10T15:34:11.004Z,2.75
2018-09-10T15:36:43.347Z,2.90
2018-09-10T15:39:15.784Z,2.67
2018-09-10T15:41:48.109Z,2.90
2018-09-10T15:44:20.467Z,2.60
2018-09-10T15:46:52.804Z,3.00
2018-09-10T15:49:25.160Z,2.80
2018-09-10T15:51:57.516Z,2.63
2018-09-10T15:54:29.847Z,3.00
2018-09-10T15:57:02.181Z,3.17
2018-09-10T15:59:34.516Z,2.50
2018-09-10T16:02:07.164Z,2.43
2018-09-10T16:04:39.475Z,2.60
2018-09-10T16:07:11.819Z,2.60
2018-09-10T16:09:44.096Z,2.90
2018-09-10T16:12:16.407Z,2.67
2018-09-10T16:14:48.732Z,2.80
2018-09-10T16:17:21.040Z,2.50
2018-09-10T16:19:53.356Z,2.87
2018-09-10T16:22:25.662Z,2.73
2018-09-10T16:24:57.985Z,2.83
2018-09-10T16:27:30.382Z,2.93
2018-09-10T16:30:02.694Z,2.67
2018-09-10T16:32:35.020Z,2.90
2018-09-10T16:35:07.370Z,2.93
2018-09-10T16:37:39.680Z,2.50
2018-09-10T16:40:12.002Z,4.23
2018-09-10T16:42:44.513Z,3.10
2018-09-10T16:45:17.239Z,2.60
2018-09-10T16:47:49.548Z,3.33
2018-09-10T16:50:21.872Z,4.40
2018-09-10T16:52:54.220Z,3.33
2018-09-10T16:55:26.561Z,2.87
2018-09-10T16:57:58.867Z,5.27
2018-09-10T17:00:31.219Z,3.93
2018-09-10T17:03:03.549Z,3.47
2018-09-10T17:05:35.935Z,3.00
2018-09-10T17:08:08.257Z,2.57
2018-09-10T17:10:40.606Z,2.90
2018-09-10T17:13:12.915Z,3.23
2018-09-10T17:15:45.264Z,2.80
2018-09-10T17:18:17.576Z,2.90
2018-09-10T17:20:49.900Z,3.47
2018-09-10T17:23:22.332Z,3.10
2018-09-10T17:25:54.619Z,2.73
2018-09-10T17:28:26.954Z,2.80
2018-09-10T17:30:59.248Z,2.80
2018-09-10T17:33:32.129Z,2.80
2018-09-10T17:36:04.497Z,2.67
2018-09-10T17:38:36.876Z,3.20
2018-09-10T17:41:09.212Z,2.80
2018-09-10T17:43:41.524Z,2.60
2018-09-10T17:46:13.847Z,2.30
2018-09-10T17:48:46.165Z,2.90
2018-09-10T17:51:18.501Z,3.13
2018-09-10T17:53:50.815Z,3.00
2018-09-10T17:56:23.116Z,3.00
2018-09-10T17:58:55.432Z,3.13
2018-09-10T18:01:27.796Z,2.83
2018-09-10T18:04:00.800Z,2.70
2018-09-10T18:06:33.112Z,2.87
2018-09-10T18:09:09.139Z,3.20
2018-09-10T18:11:41.524Z,3.03
2018-09-10T18:14:13.853Z,2.67
2018-09-10T18:16:46.191Z,2.90
2018-09-10T18:19:18.848Z,3.20
2018-09-10T18:21:51.208Z,3.70
2018-09-10T18:24:23.544Z,3.30
2018-09-10T18:26:56.614Z,3.33
2018-09-10T18:29:28.971Z,3.37
2018-09-10T18:32:01.296Z,3.90
2018-09-10T18:34:33.624Z,3.20
2018-09-10T18:37:05.972Z,3.30
2018-09-10T18:39:38.312Z,3.93
2018-09-10T18:42:10.643Z,3.10
2018-09-10T18:44:42.981Z,3.30
2018-09-10T18:47:15.351Z,3.70
2018-09-10T18:49:47.689Z,3.63
2018-09-10T18:52:20.028Z,3.40
2018-09-10T18:54:52.359Z,3.50
2018-09-10T18:57:24.909Z,3.43
2018-09-10T18:59:57.252Z,3.87
2018-09-10T19:02:29.587Z,3.90
2018-09-10T19:05:01.920Z,4.07
2018-09-10T19:07:34.239Z,4.00
2018-09-10T19:10:06.841Z,3.63
2018-09-10T19:12:39.160Z,3.87
2018-09-10T19:15:11.499Z,4.17
2018-09-10T19:17:43.820Z,3.73
2018-09-10T19:20:16.159Z,3.80
2018-09-10T19:22:49.017Z,4.00
2018-09-10T19:25:21.352Z,3.73
2018-09-10T19:27:53.695Z,4.17
2018-09-10T19:30:26.136Z,4.30
